Terminal Aerodrome Forecast
Issued by NWS

Home | Current Version | Previous Version | Graphics & Text | Print | Product List | Glossary On
Versions: 1 2 3 4 5 6 7 8 9 10 11 12 13 14 15
000
FTUS45 KGGW 242320
TAFSDY
TAF
KSDY 242320Z 2500/2524 19007KT P6SM BKN070
     FM250600 26004KT 6SM -SN OVC035
     FM251200 32005KT P6SM OVC009
     FM251800 26008KT 4SM -SN SCT018 OVC020=

USA.gov is the U.S. government's official web portal to all federal, state and local government web resources and services.